Boise, ID (83703)

9:34 PM MST en Noviembre 22, 2014 (GMT -0700)
Sunset | Change Station
CLOSE
Current Station
Estación meteorológica personal
Location: Boise, ID
Altura: 2677 ft
Estaciones meteorológicas cercanas

Alt 2677 ft 43.65 °N, 116.23 °W | Updated 13 minutes ago

Parcialmente nublado
Parcialmente nublado
34.5 ° F
Sensación térmica 34 ° F
N
0.0
Viento Variable Viento desde SSO

Hoy
Alta -- | Baja -- ° F
--% Posibilidad de precipitaciones
Ayer
Alta -- | Baja -- ° F
Precip. -- pul
7:47 AM 5:13 PM
Luna nueva, 1% visible
Presión 30.00 pul
Visibilidad 10.0 Millas
Nubes Nubes dispersas 3600 ft
Vientos helados 34 ° F
Punto de rocío 34 ° F
Humedad 99%
Precipitaciones 0.58 pul
Espesor de la nieve No disponible.
UV 0 de una escala de 12
Polen .10 de una escala de 12
Calidad del aire No disponible.
Flu Activity No disponible.
METAR KBOI 230353Z 32005KT 10SM SCT036 03/01 A2997 RMK AO2 RAB0257E07B25E45 SLP159 P0001 T00280006

More Conditions Fewer Conditions

Presión 30.00 pul
Visibilidad 10.0 Millas
Nubes Nubes dispersas 3600 ft
Vientos helados 34 ° F
Punto de rocío 34 ° F
Humedad 99%
Precipitaciones 0.58 pul
Espesor de la nieve No disponible.
UV 0 de una escala de 12
Polen .10 de una escala de 12
Calidad del aire No disponible.
Flu Activity No disponible.
METAR KBOI 230353Z 32005KT 10SM SCT036 03/01 A2997 RMK AO2 RAB0257E07B25E45 SLP159 P0001 T00280006

More Conditions Fewer Conditions

10-Day Weather Forecast

Almanac

Astronomía

Nov. 22, 2014 Salida Puesta
Hora real
Crepúsculo civil
Crepúsculo náutico
Crepúsculo astronómico
Luna
Horas de luz
Horas de luz
Tomorrow will be .
, % of the Moon is Illuminated

Extremos de hoy

Máximos del estado Bajos del estado

Community

WunderPhotos

Upload Photos

1,773,002 ¡fotos cargadas!

WunderBlogs® & News

Nearby

Calidad del aire

  Calidad del aire Índice AQ Contaminante
Not available.

Grosos de nieve

Estación Profundido Altura

Actividad de terremotos

Ciudad Distance Mag. Tiempo y dato
Magnitud mínima muestra es 2,5.

Temperaturas de aguas costeras

Lugar Temperatura

Estaciones meteorológicas cercanas